createdAt,value
2019-05-23T00:01:44.246Z,37.17
2019-05-23T00:04:30.573Z,37.37
2019-05-23T00:07:00.778Z,40.90
2019-05-23T00:09:29.417Z,42.07
2019-05-23T00:12:15.469Z,45.83
2019-05-23T00:14:51.606Z,46.07
2019-05-23T00:17:20.779Z,47.50
2019-05-23T00:19:50.087Z,50.03
2019-05-23T00:22:19.951Z,50.95
2019-05-23T00:24:49.027Z,53.92
2019-05-23T00:27:17.769Z,52.43
2019-05-23T00:29:47.079Z,56.17
2019-05-23T00:32:23.272Z,52.53
2019-05-23T00:34:53.334Z,58.42
2019-05-23T00:37:22.899Z,60.28
2019-05-23T00:39:52.841Z,59.73
2019-05-23T00:42:21.764Z,59.33
2019-05-23T00:44:50.671Z,64.77
2019-05-23T00:47:20.123Z,63.40
2019-05-23T00:49:49.493Z,69.50
2019-05-23T00:52:17.846Z,67.67
2019-05-23T00:54:46.465Z,72.22
2019-05-23T00:57:15.189Z,76.82
2019-05-23T00:59:43.548Z,75.17
2019-05-23T01:02:12.489Z,75.57
2019-05-23T01:04:40.768Z,68.45
2019-05-23T01:07:09.706Z,79.30
2019-05-23T01:09:38.889Z,79.10
2019-05-23T01:12:08.670Z,74.90
2019-05-23T01:14:37.153Z,76.87
2019-05-23T01:17:06.589Z,84.45
2019-05-23T01:19:34.833Z,81.40
2019-05-23T01:22:05.154Z,79.65
2019-05-23T01:24:41.072Z,86.15
2019-05-23T01:27:10.326Z,86.15
2019-05-23T01:29:40.378Z,85.67
2019-05-23T01:32:13.532Z,82.40
2019-05-23T01:34:42.066Z,89.92
2019-05-23T01:37:10.380Z,87.42
2019-05-23T01:39:38.701Z,93.07
2019-05-23T01:42:07.172Z,88.97
2019-05-23T01:44:35.787Z,89.10
2019-05-23T01:47:05.779Z,89.32
2019-05-23T01:49:34.030Z,82.80
2019-05-23T01:52:02.480Z,89.00
2019-05-23T01:54:31.016Z,85.85
2019-05-23T01:57:00.076Z,90.77
2019-05-23T01:59:28.899Z,95.67
2019-05-23T02:01:57.425Z,88.65
2019-05-23T02:04:25.700Z,82.92
2019-05-23T02:06:54.370Z,77.58
2019-05-23T02:09:23.504Z,81.00
2019-05-23T02:11:52.896Z,87.95
2019-05-23T02:14:21.354Z,76.17
2019-05-23T02:16:50.575Z,75.65
2019-05-23T02:19:20.706Z,76.10
2019-05-23T02:21:49.334Z,75.45
2019-05-23T02:24:18.560Z,80.22
2019-05-23T02:26:46.909Z,75.60
2019-05-23T02:29:15.663Z,79.53
2019-05-23T02:31:45.289Z,71.30
2019-05-23T02:34:15.422Z,67.40
2019-05-23T02:36:44.205Z,72.17
2019-05-23T02:39:30.626Z,64.62
2019-05-23T02:42:13.323Z,68.42
2019-05-23T02:44:43.077Z,64.25
2019-05-23T02:47:19.132Z,65.92
2019-05-23T02:49:48.542Z,59.27
2019-05-23T02:52:39.052Z,61.58
2019-05-23T02:55:17.143Z,57.62
2019-05-23T02:57:46.943Z,56.95
2019-05-23T03:00:52.647Z,56.20
2019-05-23T03:03:06.745Z,56.92
2019-05-23T03:05:37.174Z,51.68
2019-05-23T03:08:05.893Z,56.40
2019-05-23T03:10:59.085Z,53.58
2019-05-23T03:13:29.152Z,52.78
2019-05-23T03:15:58.415Z,49.55
2019-05-23T03:18:33.237Z,50.52
2019-05-23T03:21:00.158Z,48.80
2019-05-23T03:23:28.514Z,47.15
2019-05-23T03:26:01.689Z,46.53
2019-05-23T03:28:33.834Z,44.40
2019-05-23T03:31:26.839Z,42.25
2019-05-23T03:33:36.418Z,43.42
2019-05-23T03:36:04.754Z,39.75
2019-05-23T03:38:33.273Z,39.03
2019-05-23T03:41:02.071Z,38.58
2019-05-23T03:43:30.359Z,36.88
2019-05-23T03:46:09.321Z,36.85
2019-05-23T03:48:38.706Z,36.03
2019-05-23T03:51:09.383Z,33.42
2019-05-23T03:53:39.643Z,32.13
2019-05-23T03:56:09.842Z,31.75
2019-05-23T03:58:38.947Z,30.48
2019-05-23T04:01:08.838Z,29.40
2019-05-23T04:03:40.135Z,27.73
2019-05-23T04:06:07.438Z,27.73
2019-05-23T04:08:37.046Z,26.12
2019-05-23T04:11:06.280Z,25.85
2019-05-23T04:13:34.626Z,25.77
2019-05-23T04:16:03.846Z,24.05
2019-05-23T04:18:32.903Z,22.82
2019-05-23T04:21:01.242Z,21.73
2019-05-23T04:23:29.593Z,21.57
2019-05-23T04:25:58.101Z,20.52
2019-05-23T04:28:27.162Z,20.30
2019-05-23T04:30:55.408Z,19.30
2019-05-23T04:33:24.065Z,19.02
2019-05-23T04:35:52.340Z,17.62
2019-05-23T04:38:20.913Z,17.10
2019-05-23T04:40:49.745Z,16.30
2019-05-23T04:43:18.062Z,15.43
2019-05-23T04:45:47.476Z,15.18
2019-05-23T04:48:17.097Z,14.38
2019-05-23T04:50:45.713Z,13.25
2019-05-23T04:53:14.454Z,13.65
2019-05-23T04:55:43.845Z,12.35
2019-05-23T04:58:12.586Z,11.80
2019-05-23T05:00:40.940Z,11.33
2019-05-23T05:03:09.646Z,10.80
2019-05-23T05:05:38.704Z,10.63
2019-05-23T05:08:07.148Z,9.78
2019-05-23T05:10:35.954Z,9.93
2019-05-23T05:13:04.979Z,9.68
2019-05-23T05:15:33.590Z,8.40
2019-05-23T05:18:02.330Z,8.25
2019-05-23T05:20:30.586Z,7.70
2019-05-23T05:22:58.863Z,7.45
2019-05-23T05:25:27.485Z,7.30
2019-05-23T05:27:55.943Z,6.60
2019-05-23T05:30:24.480Z,6.25
2019-05-23T05:32:52.754Z,6.22
2019-05-23T05:35:21.006Z,6.15
2019-05-23T05:37:49.285Z,5.62
2019-05-23T05:40:17.586Z,5.53
2019-05-23T05:42:46.338Z,5.08
2019-05-23T05:45:15.219Z,5.05
2019-05-23T05:47:43.508Z,4.67
2019-05-23T05:50:12.927Z,4.60
2019-05-23T05:52:41.214Z,4.40
2019-05-23T05:55:10.120Z,4.30
2019-05-23T05:57:38.371Z,4.12
2019-05-23T06:00:12.812Z,3.72
2019-05-23T06:02:40.074Z,3.52
2019-05-23T06:05:09.985Z,3.15
2019-05-23T06:07:39.505Z,3.20
2019-05-23T06:10:10.874Z,3.30
2019-05-23T06:12:39.189Z,3.10
2019-05-23T06:15:07.526Z,2.90
2019-05-23T06:17:35.806Z,3.08
2019-05-23T06:20:05.247Z,2.70
2019-05-23T06:22:34.006Z,2.70
2019-05-23T06:25:03.937Z,2.60
2019-05-23T06:27:33.007Z,2.62
2019-05-23T06:30:01.348Z,2.67
2019-05-23T06:32:30.132Z,2.40
2019-05-23T06:34:58.384Z,2.50
2019-05-23T06:37:26.664Z,2.20
2019-05-23T06:39:55.541Z,2.17
2019-05-23T06:42:23.818Z,2.10
2019-05-23T06:44:52.071Z,2.00
2019-05-23T06:47:20.622Z,2.10
2019-05-23T06:49:48.887Z,1.90
2019-05-23T06:52:17.745Z,1.90
2019-05-23T06:54:46.070Z,1.92
2019-05-23T06:57:14.321Z,2.00
2019-05-23T06:59:42.711Z,1.80
2019-05-23T07:02:11.267Z,1.60
2019-05-23T07:04:39.654Z,1.90
2019-05-23T07:07:09.354Z,1.50
2019-05-23T07:09:38.042Z,1.70
2019-05-23T07:12:06.716Z,1.90
2019-05-23T07:14:35.142Z,1.67
2019-05-23T07:17:03.779Z,1.60
2019-05-23T07:19:32.358Z,1.70
2019-05-23T07:22:00.861Z,1.55
2019-05-23T07:24:29.511Z,1.57
2019-05-23T07:26:57.796Z,1.55
2019-05-23T07:29:26.223Z,1.50
2019-05-23T07:31:54.480Z,1.60
2019-05-23T07:34:23.897Z,1.50
2019-05-23T07:36:52.162Z,1.30
2019-05-23T07:39:20.417Z,1.50
2019-05-23T07:41:49.125Z,1.50
2019-05-23T07:44:18.012Z,1.72
2019-05-23T07:46:46.479Z,1.45
2019-05-23T07:49:14.763Z,1.42
2019-05-23T07:51:43.069Z,1.50
2019-05-23T07:54:16.038Z,1.50
2019-05-23T07:56:45.056Z,1.80
2019-05-23T07:59:13.410Z,1.47
2019-05-23T08:01:44.497Z,1.30
2019-05-23T08:04:21.305Z,1.30
2019-05-23T08:06:48.410Z,1.40
2019-05-23T08:09:14.601Z,1.47
2019-05-23T08:11:43.045Z,1.55
2019-05-23T08:14:12.276Z,1.30
2019-05-23T08:16:40.819Z,1.42
2019-05-23T08:19:09.143Z,1.50
2019-05-23T08:21:37.393Z,1.50
2019-05-23T08:24:05.720Z,1.80
2019-05-23T08:26:35.332Z,1.50
2019-05-23T08:29:24.741Z,1.30
2019-05-23T08:31:33.595Z,1.50
2019-05-23T08:34:02.966Z,1.30
2019-05-23T08:36:31.976Z,1.40
2019-05-23T08:39:00.797Z,1.37
2019-05-23T08:41:29.046Z,1.40
2019-05-23T08:43:57.395Z,1.42
2019-05-23T08:46:25.746Z,1.52
2019-05-23T08:48:54.579Z,1.65
2019-05-23T08:51:23.176Z,1.80
2019-05-23T08:53:51.438Z,1.62
2019-05-23T08:56:19.903Z,1.60
2019-05-23T08:58:48.505Z,1.60
2019-05-23T09:01:17.194Z,1.72
2019-05-23T09:03:45.820Z,1.70
2019-05-23T09:06:14.957Z,1.70
2019-05-23T09:08:44.193Z,1.80
2019-05-23T09:11:13.470Z,1.90
2019-05-23T09:13:41.761Z,1.63
2019-05-23T09:16:10.548Z,1.80
2019-05-23T09:18:38.814Z,1.42
2019-05-23T09:21:07.062Z,1.65
2019-05-23T09:23:35.350Z,1.90
2019-05-23T09:26:03.672Z,1.67
2019-05-23T09:28:31.938Z,1.70
2019-05-23T09:31:00.457Z,1.85
2019-05-23T09:33:29.202Z,1.70
2019-05-23T09:35:57.481Z,1.60
2019-05-23T09:38:25.908Z,1.67
2019-05-23T09:40:54.204Z,1.80
2019-05-23T09:43:22.535Z,1.90
2019-05-23T09:45:50.821Z,1.92
2019-05-23T09:48:19.083Z,1.92
2019-05-23T09:50:47.934Z,2.03
2019-05-23T09:53:17.213Z,1.97
2019-05-23T09:55:45.774Z,1.90
2019-05-23T09:58:14.548Z,2.10
2019-05-23T10:00:43.410Z,1.85
2019-05-23T10:03:11.775Z,1.77
2019-05-23T10:05:43.527Z,1.70
2019-05-23T10:08:10.910Z,1.82
2019-05-23T10:10:39.160Z,1.80
2019-05-23T10:13:07.441Z,1.70
2019-05-23T10:15:40.362Z,1.92
2019-05-23T10:18:19.190Z,1.70
2019-05-23T10:20:47.701Z,1.65
2019-05-23T10:23:16.234Z,2.00
2019-05-23T10:25:45.168Z,1.70
2019-05-23T10:28:15.537Z,1.60
2019-05-23T10:30:43.839Z,1.67
2019-05-23T10:33:13.418Z,1.90
2019-05-23T10:35:56.889Z,1.90
2019-05-23T10:38:12.015Z,2.00
2019-05-23T10:40:40.399Z,1.80
2019-05-23T10:43:08.889Z,1.82
2019-05-23T10:45:37.179Z,2.10
2019-05-23T10:48:07.010Z,1.80
2019-05-23T10:50:44.340Z,1.90
2019-05-23T10:53:05.605Z,1.80
2019-05-23T10:55:33.889Z,1.80
2019-05-23T10:58:02.216Z,1.90
2019-05-23T11:00:30.490Z,2.05
2019-05-23T11:02:59.396Z,1.90
2019-05-23T11:05:27.660Z,2.10
2019-05-23T11:07:56.090Z,1.75
2019-05-23T11:10:25.068Z,2.15
2019-05-23T11:12:53.372Z,1.80
2019-05-23T11:15:21.645Z,1.92
2019-05-23T11:17:53.513Z,1.92
2019-05-23T11:20:20.528Z,2.30
2019-05-23T11:22:49.018Z,1.87
2019-05-23T11:25:17.604Z,1.90
2019-05-23T11:27:45.946Z,2.10
2019-05-23T11:30:16.190Z,2.00
2019-05-23T11:32:44.466Z,1.93
2019-05-23T11:35:12.845Z,2.00
2019-05-23T11:37:42.032Z,2.08
2019-05-23T11:40:10.536Z,1.70
2019-05-23T11:42:38.799Z,2.10
2019-05-23T11:45:08.114Z,1.90
2019-05-23T11:47:36.552Z,1.70
2019-05-23T11:50:06.572Z,1.65
2019-05-23T11:52:35.191Z,1.90
2019-05-23T11:55:06.971Z,1.80
2019-05-23T11:57:37.621Z,2.98
2019-05-23T12:00:08.984Z,2.58
2019-05-23T12:02:39.835Z,2.90
2019-05-23T12:05:09.729Z,2.30
2019-05-23T12:07:38.088Z,2.30
2019-05-23T12:10:07.125Z,2.42
2019-05-23T12:12:35.449Z,2.95
2019-05-23T12:15:07.460Z,2.30
2019-05-23T12:17:35.798Z,2.00
2019-05-23T12:20:06.813Z,1.98
2019-05-23T12:22:35.132Z,6.30
2019-05-23T12:25:21.257Z,7.08
2019-05-23T12:27:36.873Z,3.90
2019-05-23T12:30:08.214Z,3.30
2019-05-23T12:32:36.804Z,3.20
2019-05-23T12:35:11.021Z,2.40
2019-05-23T12:37:37.070Z,2.33
2019-05-23T12:40:10.543Z,1.95
2019-05-23T12:42:38.835Z,2.47
2019-05-23T12:45:09.057Z,3.15
2019-05-23T12:47:39.069Z,2.83
2019-05-23T12:50:09.009Z,2.60
2019-05-23T12:52:37.289Z,2.95
2019-05-23T12:55:05.554Z,2.62
2019-05-23T12:57:34.074Z,2.15
2019-05-23T13:00:07.493Z,2.08
2019-05-23T13:02:36.235Z,2.33
2019-05-23T13:05:06.341Z,2.58
2019-05-23T13:07:36.617Z,2.10
2019-05-23T13:10:05.757Z,2.23
2019-05-23T13:12:34.144Z,3.45
2019-05-23T13:15:02.533Z,2.02
2019-05-23T13:17:30.855Z,2.37
2019-05-23T13:19:59.446Z,2.33
2019-05-23T13:22:28.106Z,3.58
2019-05-23T13:24:56.383Z,2.12
2019-05-23T13:27:24.991Z,2.27
2019-05-23T13:29:53.275Z,2.83
2019-05-23T13:32:21.686Z,2.35
2019-05-23T13:34:49.929Z,2.15
2019-05-23T13:37:19.869Z,1.80
2019-05-23T13:39:48.193Z,1.90
2019-05-23T13:42:16.502Z,2.27
2019-05-23T13:44:44.777Z,2.30
2019-05-23T13:47:13.051Z,2.25
2019-05-23T13:49:41.301Z,2.00
2019-05-23T13:52:09.637Z,1.98
2019-05-23T13:54:38.533Z,2.08
2019-05-23T13:57:07.506Z,1.92
2019-05-23T13:59:36.409Z,1.92
2019-05-23T14:02:06.643Z,2.00
2019-05-23T14:04:35.488Z,1.80
2019-05-23T14:07:04.690Z,1.90
2019-05-23T14:09:32.942Z,2.20
2019-05-23T14:12:20.544Z,2.08
2019-05-23T14:14:31.262Z,2.10
2019-05-23T14:17:17.898Z,2.20
2019-05-23T14:19:46.392Z,2.40
2019-05-23T14:22:15.233Z,2.00
2019-05-23T14:24:43.530Z,2.05
2019-05-23T14:27:29.747Z,2.22
2019-05-23T14:29:58.166Z,2.60
2019-05-23T14:32:43.674Z,2.17
2019-05-23T14:35:13.572Z,2.55
2019-05-23T14:37:46.190Z,2.33
2019-05-23T14:40:14.580Z,2.47
2019-05-23T14:42:44.509Z,2.27
2019-05-23T14:45:17.230Z,2.20
2019-05-23T14:47:47.142Z,2.20
2019-05-23T14:50:33.480Z,2.15
2019-05-23T14:53:03.426Z,2.12
2019-05-23T14:55:32.358Z,2.15
2019-05-23T14:58:00.770Z,2.20
2019-05-23T15:00:29.835Z,2.08
2019-05-23T15:02:58.535Z,2.27
2019-05-23T15:05:27.177Z,2.42
2019-05-23T15:07:55.430Z,2.47
2019-05-23T15:10:25.017Z,2.15
2019-05-23T15:12:54.915Z,2.20
2019-05-23T15:15:23.476Z,2.67
2019-05-23T15:17:51.881Z,2.20
2019-05-23T15:20:20.212Z,2.52
2019-05-23T15:22:48.488Z,2.47
2019-05-23T15:25:18.084Z,2.20
2019-05-23T15:27:46.422Z,2.05
2019-05-23T15:30:15.096Z,2.30
2019-05-23T15:32:43.457Z,2.67
2019-05-23T15:35:11.790Z,2.00
2019-05-23T15:37:40.600Z,2.47
2019-05-23T15:40:09.136Z,2.00
2019-05-23T15:42:37.478Z,2.00
2019-05-23T15:45:06.771Z,1.95
2019-05-23T15:47:35.942Z,1.92
2019-05-23T15:50:11.297Z,2.22
2019-05-23T15:52:47.302Z,2.05
2019-05-23T15:55:29.644Z,2.30
2019-05-23T15:58:02.717Z,2.00
2019-05-23T16:00:41.982Z,2.83
2019-05-23T16:03:14.582Z,2.17
2019-05-23T16:05:42.838Z,2.50
2019-05-23T16:08:11.314Z,2.10
2019-05-23T16:10:40.091Z,2.08
2019-05-23T16:13:08.808Z,2.27
2019-05-23T16:15:37.123Z,2.10
2019-05-23T16:18:05.889Z,2.70
2019-05-23T16:20:34.425Z,2.45
2019-05-23T16:23:03.017Z,2.98
2019-05-23T16:25:33.089Z,2.50
2019-05-23T16:28:01.412Z,2.90
2019-05-23T16:30:29.673Z,3.15
2019-05-23T16:32:57.970Z,2.63
2019-05-23T16:35:27.834Z,2.85
2019-05-23T16:37:57.209Z,2.50
2019-05-23T16:40:25.922Z,2.37
2019-05-23T16:42:54.443Z,2.62
2019-05-23T16:45:22.701Z,2.27
2019-05-23T16:47:51.069Z,2.27
2019-05-23T16:50:19.407Z,2.20
2019-05-23T16:52:47.638Z,1.82
2019-05-23T16:55:29.608Z,2.42
2019-05-23T16:58:00.176Z,2.37
2019-05-23T17:00:46.949Z,2.12
2019-05-23T17:03:19.586Z,2.15
2019-05-23T17:06:06.028Z,1.82
2019-05-23T17:08:36.159Z,2.05
2019-05-23T17:11:06.077Z,2.03
2019-05-23T17:13:41.747Z,2.10
2019-05-23T17:16:11.653Z,2.05
2019-05-23T17:18:54.014Z,1.80
2019-05-23T17:21:40.348Z,1.98
2019-05-23T17:24:16.522Z,1.87
2019-05-23T17:26:52.331Z,1.67
2019-05-23T17:29:25.220Z,1.80
2019-05-23T17:31:55.154Z,1.80
2019-05-23T17:34:23.433Z,2.00
2019-05-23T17:36:51.688Z,1.75
2019-05-23T17:39:20.601Z,1.52
2019-05-23T17:41:48.910Z,1.87
2019-05-23T17:44:17.282Z,1.80
2019-05-23T17:46:45.541Z,1.60
2019-05-23T17:49:14.090Z,1.87
2019-05-23T17:51:42.334Z,1.50
2019-05-23T17:54:11.394Z,1.67
2019-05-23T17:56:39.700Z,1.47
2019-05-23T17:59:08.285Z,1.70
2019-05-23T18:01:37.029Z,1.47
2019-05-23T18:04:05.940Z,1.52
2019-05-23T18:06:34.185Z,1.82
2019-05-23T18:09:04.102Z,1.32
2019-05-23T18:11:32.614Z,1.30
2019-05-23T18:14:00.877Z,1.60
2019-05-23T18:16:29.191Z,1.35
2019-05-23T18:18:57.983Z,1.50
2019-05-23T18:21:27.880Z,1.50
2019-05-23T18:23:56.158Z,1.60
2019-05-23T18:26:24.422Z,1.50
2019-05-23T18:28:53.441Z,1.40
2019-05-23T18:31:26.453Z,1.20
2019-05-23T18:33:54.986Z,1.55
2019-05-23T18:36:23.339Z,1.50
2019-05-23T18:38:51.742Z,1.30
2019-05-23T18:41:20.063Z,1.37
2019-05-23T18:43:48.558Z,1.52
2019-05-23T18:46:18.821Z,1.22
2019-05-23T18:48:47.146Z,1.25
2019-05-23T18:51:16.406Z,1.25
2019-05-23T18:53:44.977Z,1.42
2019-05-23T18:56:13.286Z,1.40
2019-05-23T18:58:41.573Z,1.25
2019-05-23T19:01:11.534Z,1.20
2019-05-23T19:03:40.216Z,1.27
2019-05-23T19:06:08.518Z,1.20
2019-05-23T19:08:37.107Z,1.10
2019-05-23T19:11:19.540Z,1.40
2019-05-23T19:13:36.013Z,1.30
2019-05-23T19:16:04.781Z,1.05
2019-05-23T19:18:33.816Z,1.20
2019-05-23T19:21:02.712Z,1.30
2019-05-23T19:23:30.977Z,1.20
2019-05-23T19:25:59.944Z,1.17
2019-05-23T19:28:29.335Z,1.20
2019-05-23T19:30:58.357Z,1.10
2019-05-23T19:33:27.269Z,1.35
2019-05-23T19:35:55.880Z,1.27
2019-05-23T19:38:24.179Z,1.23
2019-05-23T19:40:52.451Z,1.10
2019-05-23T19:43:21.069Z,1.12
2019-05-23T19:45:49.909Z,1.02
2019-05-23T19:48:18.549Z,0.93
2019-05-23T19:50:46.865Z,1.10
2019-05-23T19:53:15.149Z,1.20
2019-05-23T19:55:44.096Z,1.20
2019-05-23T19:58:12.361Z,1.00
2019-05-23T20:00:41.285Z,1.30
2019-05-23T20:03:09.777Z,1.32
2019-05-23T20:05:39.522Z,1.20
2019-05-23T20:08:07.999Z,1.40
2019-05-23T20:10:36.515Z,1.10
2019-05-23T20:13:05.301Z,0.93
2019-05-23T20:15:33.576Z,1.17
2019-05-23T20:18:01.939Z,1.10
2019-05-23T20:20:31.463Z,1.20
2019-05-23T20:22:59.785Z,1.25
2019-05-23T20:25:28.748Z,1.15
2019-05-23T20:27:57.021Z,1.07
2019-05-23T20:30:47.597Z,1.15
2019-05-23T20:33:16.571Z,1.12
2019-05-23T20:35:44.881Z,1.00
2019-05-23T20:38:13.305Z,1.02
2019-05-23T20:40:41.642Z,1.12
2019-05-23T20:43:10.352Z,1.15
2019-05-23T20:45:38.860Z,0.90
2019-05-23T20:48:07.101Z,1.00
2019-05-23T20:50:35.393Z,1.20
2019-05-23T20:53:04.099Z,0.87
2019-05-23T20:55:32.401Z,0.90
2019-05-23T20:58:00.724Z,1.10
2019-05-23T21:00:36.691Z,1.10
2019-05-23T21:03:05.194Z,1.10
2019-05-23T21:05:33.518Z,1.00
2019-05-23T21:08:01.838Z,1.00
2019-05-23T21:10:42.530Z,1.00
2019-05-23T21:13:11.071Z,1.03
2019-05-23T21:15:40.869Z,1.20
2019-05-23T21:18:09.321Z,1.10
2019-05-23T21:20:37.652Z,1.20
2019-05-23T21:23:06.073Z,1.05
2019-05-23T21:25:36.532Z,1.27
2019-05-23T21:28:05.041Z,1.10
2019-05-23T21:30:33.375Z,1.20
2019-05-23T21:33:01.665Z,1.00
2019-05-23T21:35:30.895Z,0.90
2019-05-23T21:37:59.158Z,1.07
2019-05-23T21:40:37.104Z,1.20
2019-05-23T21:43:05.450Z,1.00
2019-05-23T21:45:34.061Z,0.90
2019-05-23T21:48:02.387Z,1.07
2019-05-23T21:50:30.935Z,1.20
2019-05-23T21:52:59.323Z,1.10
2019-05-23T21:55:41.415Z,1.10
2019-05-23T21:58:10.806Z,1.20
2019-05-23T22:01:08.180Z,1.10
2019-05-23T22:03:50.000Z,1.10
2019-05-23T22:06:19.912Z,1.00
2019-05-23T22:08:48.921Z,1.12
2019-05-23T22:11:18.016Z,1.20
2019-05-23T22:13:46.281Z,1.10
2019-05-23T22:16:14.655Z,1.10
2019-05-23T22:18:43.232Z,1.00
2019-05-23T22:21:11.964Z,1.10
2019-05-23T22:23:40.221Z,1.30
2019-05-23T22:26:08.812Z,1.05
2019-05-23T22:28:37.136Z,0.93
2019-05-23T22:31:05.382Z,1.10
2019-05-23T22:33:38.578Z,1.10
2019-05-23T22:36:08.210Z,1.00
2019-05-23T22:38:36.485Z,1.10
2019-05-23T22:41:04.741Z,1.03
2019-05-23T22:43:33.002Z,1.10
2019-05-23T22:46:01.252Z,1.20
2019-05-23T22:48:29.526Z,1.10
2019-05-23T22:50:57.766Z,1.23
2019-05-23T22:53:26.187Z,1.10
2019-05-23T22:55:54.456Z,1.00
2019-05-23T22:58:22.781Z,1.10
2019-05-23T23:00:51.223Z,1.10
2019-05-23T23:03:19.569Z,1.20
2019-05-23T23:05:47.828Z,1.00
2019-05-23T23:08:16.657Z,1.07
2019-05-23T23:10:44.977Z,1.10
2019-05-23T23:13:14.297Z,0.93
2019-05-23T23:15:42.943Z,1.10
2019-05-23T23:18:11.626Z,1.03
2019-05-23T23:20:39.878Z,1.20
2019-05-23T23:23:08.488Z,1.10
2019-05-23T23:25:36.754Z,1.00
2019-05-23T23:28:05.090Z,1.20
2019-05-23T23:30:34.985Z,1.07
2019-05-23T23:33:03.293Z,1.10
2019-05-23T23:35:31.599Z,1.10
2019-05-23T23:38:00.455Z,1.20
2019-05-23T23:40:28.713Z,1.00
2019-05-23T23:42:56.987Z,1.30
2019-05-23T23:45:43.296Z,1.00
2019-05-23T23:48:29.768Z,1.10
2019-05-23T23:51:16.470Z,1.10
2019-05-23T23:54:03.054Z,1.00
2019-05-23T23:56:49.281Z,1.10
2019-05-23T23:59:16.862Z,1.13
